createdAt,value
2023-03-21T00:04:21.350Z,9.63
2023-03-21T00:09:43.247Z,9.64
2023-03-21T00:15:10.334Z,9.56
2023-03-21T00:20:33.495Z,9.67
2023-03-21T00:25:55.489Z,9.70
2023-03-21T00:31:18.227Z,9.74
2023-03-21T00:36:40.152Z,9.69
2023-03-21T00:42:02.363Z,9.76
2023-03-21T00:47:25.915Z,9.77
2023-03-21T00:52:47.900Z,9.69
2023-03-21T00:58:10.111Z,9.68
2023-03-21T01:03:33.494Z,9.51
2023-03-21T01:08:55.368Z,9.51
2023-03-21T01:14:22.908Z,9.53
2023-03-21T01:19:52.027Z,9.31
2023-03-21T01:25:22.269Z,9.41
2023-03-21T01:30:50.286Z,9.30
2023-03-21T01:36:24.903Z,9.25
2023-03-21T01:41:47.179Z,9.23
2023-03-21T01:47:12.281Z,9.10
2023-03-21T01:52:38.841Z,9.18
2023-03-21T01:58:06.352Z,9.20
2023-03-21T02:03:36.157Z,9.00
2023-03-21T02:09:05.307Z,9.11
2023-03-21T02:14:29.556Z,9.09
2023-03-21T02:20:32.937Z,9.17
2023-03-21T02:26:12.816Z,9.19
2023-03-21T02:32:05.966Z,9.21
2023-03-21T02:37:58.273Z,9.01
2023-03-21T02:43:37.195Z,9.08
2023-03-21T02:49:03.015Z,9.18
2023-03-21T02:54:41.855Z,9.18
2023-03-21T03:00:16.981Z,9.09
2023-03-21T03:05:48.151Z,9.18
2023-03-21T03:11:27.927Z,9.17
2023-03-21T03:17:08.723Z,9.15
2023-03-21T03:23:03.671Z,9.07
2023-03-21T03:28:30.297Z,8.92
2023-03-21T03:33:53.937Z,8.68
2023-03-21T03:39:18.124Z,8.87
2023-03-21T03:44:40.134Z,8.94
2023-03-21T03:50:10.890Z,8.87
2023-03-21T03:55:33.752Z,9.00
2023-03-21T04:00:56.007Z,8.98
2023-03-21T04:06:19.353Z,8.90
2023-03-21T04:11:41.221Z,8.96
2023-03-21T04:17:03.081Z,8.94
2023-03-21T04:22:25.265Z,8.96
2023-03-21T04:27:47.188Z,9.02
2023-03-21T04:33:09.072Z,9.02
2023-03-21T04:38:31.031Z,8.97
2023-03-21T04:43:54.334Z,8.95
2023-03-21T04:49:16.321Z,9.05
2023-03-21T04:54:38.160Z,9.07
2023-03-21T04:59:59.990Z,9.05
2023-03-21T05:05:21.884Z,9.10
2023-03-21T05:10:43.811Z,9.18
2023-03-21T05:16:06.211Z,9.17
2023-03-21T05:21:28.066Z,9.03
2023-03-21T05:26:50.018Z,9.16
2023-03-21T05:32:11.842Z,9.16
2023-03-21T05:37:33.795Z,9.18
2023-03-21T05:42:55.666Z,9.38
2023-03-21T05:48:17.553Z,9.31
2023-03-21T05:53:39.365Z,9.31
2023-03-21T05:59:01.300Z,9.17
2023-03-21T06:04:23.185Z,9.18
2023-03-21T06:09:45.121Z,9.23
2023-03-21T06:15:07.448Z,9.12
2023-03-21T06:20:29.361Z,9.35
2023-03-21T06:25:51.199Z,9.25
2023-03-21T06:31:13.132Z,9.30
2023-03-21T06:36:35.047Z,9.41
2023-03-21T06:41:57.609Z,9.70
2023-03-21T06:47:19.463Z,9.69
2023-03-21T06:52:41.399Z,9.68
2023-03-21T06:58:03.282Z,9.85
2023-03-21T07:03:25.302Z,9.96
2023-03-21T07:08:47.210Z,9.99
2023-03-21T07:14:09.067Z,9.92
2023-03-21T07:19:30.961Z,9.89
2023-03-21T07:25:04.110Z,9.76
2023-03-21T07:30:27.128Z,9.84
2023-03-21T07:35:53.761Z,10.35
2023-03-21T07:46:38.300Z,10.49
2023-03-21T07:52:00.730Z,11.35
2023-03-21T07:57:22.865Z,12.33
2023-03-21T08:02:44.841Z,13.57
2023-03-21T08:08:07.502Z,13.00
2023-03-21T08:13:29.481Z,13.38
2023-03-21T08:18:51.312Z,12.46
2023-03-21T08:24:13.146Z,12.38
2023-03-21T08:29:35.018Z,11.32
2023-03-21T08:35:03.379Z,11.92
2023-03-21T08:40:25.273Z,12.57
2023-03-21T08:45:47.207Z,13.14
2023-03-21T08:51:09.114Z,13.79
2023-03-21T08:56:30.957Z,13.83
2023-03-21T09:01:52.879Z,13.64
2023-03-21T09:07:14.760Z,13.85
2023-03-21T09:12:36.721Z,13.34
2023-03-21T09:17:59.425Z,13.01
2023-03-21T09:23:21.328Z,12.36
2023-03-21T09:28:43.231Z,12.16
2023-03-21T09:34:05.220Z,12.44
2023-03-21T09:39:27.183Z,12.08
2023-03-21T09:44:58.396Z,12.15
2023-03-21T09:50:24.826Z,11.83
2023-03-21T09:55:47.137Z,11.00
2023-03-21T10:01:08.992Z,11.37
2023-03-21T10:06:31.316Z,11.95
2023-03-21T10:11:56.857Z,12.40
2023-03-21T10:17:41.780Z,12.22
2023-03-21T10:23:07.003Z,12.08
2023-03-21T10:28:49.825Z,11.68
2023-03-21T10:34:26.400Z,11.27
2023-03-21T10:39:53.843Z,11.45
2023-03-21T10:45:19.299Z,11.67
2023-03-21T10:50:42.995Z,11.70
2023-03-21T10:56:09.807Z,12.17
2023-03-21T11:01:37.522Z,12.68
2023-03-21T11:07:05.839Z,12.64
2023-03-21T11:12:34.765Z,12.80
2023-03-21T11:17:58.032Z,13.01
2023-03-21T11:23:21.201Z,13.37
2023-03-21T11:28:43.553Z,13.72
2023-03-21T11:34:08.467Z,14.43
2023-03-21T11:39:33.797Z,14.58
2023-03-21T11:45:12.479Z,14.78
2023-03-21T11:50:37.450Z,15.30
2023-03-21T11:56:25.368Z,15.56
2023-03-21T12:02:16.197Z,14.90
2023-03-21T12:07:51.519Z,14.40
2023-03-21T12:13:37.089Z,14.45
2023-03-21T12:19:20.584Z,14.08
2023-03-21T12:24:54.243Z,13.39
2023-03-21T12:30:21.860Z,13.42
2023-03-21T12:35:52.497Z,13.18
2023-03-21T12:41:28.420Z,13.30
2023-03-21T12:47:12.157Z,12.64
2023-03-21T12:52:39.165Z,13.54
2023-03-21T12:58:15.678Z,13.88
2023-03-21T13:03:42.392Z,13.33
2023-03-21T13:09:13.003Z,13.48
2023-03-21T13:14:41.882Z,13.25
2023-03-21T13:20:45.864Z,13.03
2023-03-21T13:26:11.924Z,12.73
2023-03-21T13:31:45.376Z,12.58
2023-03-21T13:37:18.035Z,12.41
2023-03-21T13:42:45.326Z,11.56
2023-03-21T13:48:27.965Z,11.32
2023-03-21T13:54:08.141Z,11.34
2023-03-21T13:59:40.945Z,11.66
2023-03-21T14:05:07.659Z,11.82
2023-03-21T14:10:42.162Z,11.86
2023-03-21T14:16:10.563Z,11.60
2023-03-21T14:21:35.768Z,11.69
2023-03-21T14:26:57.896Z,11.93
2023-03-21T14:32:25.311Z,11.41
2023-03-21T14:37:47.895Z,11.42
2023-03-21T14:43:11.878Z,11.66
2023-03-21T14:48:34.797Z,11.75
2023-03-21T14:53:57.447Z,11.44
2023-03-21T14:59:23.380Z,11.63
2023-03-21T15:04:57.683Z,11.53
2023-03-21T15:10:20.064Z,11.61
2023-03-21T15:15:42.994Z,11.49
2023-03-21T15:21:10.522Z,11.63
2023-03-21T15:26:32.514Z,11.70
2023-03-21T15:31:54.461Z,11.60
2023-03-21T15:37:23.387Z,11.45
2023-03-21T15:42:45.387Z,11.68
2023-03-21T15:48:12.886Z,11.47
2023-03-21T15:53:37.245Z,11.50
2023-03-21T15:59:02.013Z,11.47
2023-03-21T16:04:24.072Z,11.52
2023-03-21T16:09:46.848Z,11.52
2023-03-21T16:15:09.167Z,11.33
2023-03-21T16:20:37.068Z,11.14
2023-03-21T16:25:59.176Z,11.18
2023-03-21T16:31:27.512Z,11.03
2023-03-21T16:36:49.366Z,10.78
2023-03-21T16:42:12.071Z,10.68
2023-03-21T16:47:33.998Z,10.45
2023-03-21T16:52:57.411Z,10.23
2023-03-21T16:58:19.254Z,10.07
2023-03-21T17:03:41.607Z,9.88
2023-03-21T17:09:03.590Z,9.66
2023-03-21T17:14:25.482Z,9.50
2023-03-21T17:19:47.388Z,9.28
2023-03-21T17:25:09.381Z,9.24
2023-03-21T17:30:38.204Z,9.16
2023-03-21T17:36:00.576Z,8.97
2023-03-21T17:41:22.425Z,8.94
2023-03-21T17:46:44.681Z,8.90
2023-03-21T17:52:06.571Z,8.72
2023-03-21T17:57:28.438Z,8.64
2023-03-21T18:02:51.296Z,8.48
2023-03-21T18:08:13.268Z,8.52
2023-03-21T18:13:35.158Z,8.42
2023-03-21T18:18:57.170Z,8.22
2023-03-21T18:24:19.050Z,8.31
2023-03-21T18:35:23.013Z,8.17
2023-03-21T18:40:44.909Z,8.03
2023-03-21T18:46:06.994Z,8.02
2023-03-21T18:51:28.826Z,8.01
2023-03-21T19:02:33.342Z,7.88
2023-03-21T19:07:55.397Z,7.81
2023-03-21T19:13:17.320Z,7.70
2023-03-21T19:18:53.851Z,7.59
2023-03-21T19:24:27.198Z,7.65
2023-03-21T19:30:06.572Z,7.66
2023-03-21T19:35:32.346Z,7.57
2023-03-21T19:40:59.769Z,7.45
2023-03-21T19:46:22.345Z,7.39
2023-03-21T19:51:44.196Z,7.42
2023-03-21T19:57:07.309Z,7.29
2023-03-21T20:02:37.125Z,7.25
2023-03-21T20:07:59.140Z,7.13
2023-03-21T20:13:20.951Z,6.73
2023-03-21T20:18:42.812Z,6.75
2023-03-21T20:24:05.042Z,6.75
2023-03-21T20:35:20.804Z,6.62
2023-03-21T20:40:49.283Z,6.42
2023-03-21T20:46:12.123Z,6.49
2023-03-21T20:57:15.778Z,6.35
2023-03-21T21:02:37.582Z,6.27
2023-03-21T21:08:01.100Z,6.12
2023-03-21T21:13:22.978Z,6.21
2023-03-21T21:18:44.810Z,6.17
2023-03-21T21:24:07.599Z,6.17
2023-03-21T21:29:29.632Z,6.07
2023-03-21T21:34:51.489Z,6.05
2023-03-21T21:40:13.524Z,6.00
2023-03-21T21:45:35.488Z,5.83
2023-03-21T21:50:57.512Z,5.76
2023-03-21T21:56:19.715Z,5.62
2023-03-21T22:01:42.065Z,5.52
2023-03-21T22:07:03.922Z,5.39
2023-03-21T22:12:25.796Z,5.39
2023-03-21T22:17:47.657Z,5.32
2023-03-21T22:23:09.498Z,5.24
2023-03-21T22:28:31.363Z,5.20
2023-03-21T22:33:53.184Z,5.14
2023-03-21T22:39:15.013Z,5.07
2023-03-21T22:44:36.855Z,5.00
2023-03-21T22:49:59.110Z,4.89
2023-03-21T22:55:21.009Z,4.71
2023-03-21T23:00:42.937Z,4.84
2023-03-21T23:06:04.950Z,4.76
2023-03-21T23:11:26.813Z,4.74
2023-03-21T23:16:49.701Z,4.54
2023-03-21T23:22:11.593Z,4.55
2023-03-21T23:27:33.471Z,4.48
2023-03-21T23:32:55.755Z,4.29
2023-03-21T23:38:17.616Z,4.25
2023-03-21T23:43:39.612Z,4.12
2023-03-21T23:49:01.603Z,4.03
2023-03-21T23:54:23.449Z,3.93
2023-03-21T23:59:45.295Z,3.83
